sensor_id;sensor_type;location;lat;lon;timestamp;pressure;altitude;pressure_sealevel;temperature;humidity
13068;BME280;6600;51.362;6.686;2022-08-25T00:01:19;101217.06;;;25.02;54.67
13068;BME280;6600;51.362;6.686;2022-08-25T00:03:46;101216.63;;;24.95;54.64
13068;BME280;6600;51.362;6.686;2022-08-25T00:06:12;101220.03;;;24.87;55.15
13068;BME280;6600;51.362;6.686;2022-08-25T00:08:38;101221.19;;;24.81;55.28
13068;BME280;6600;51.362;6.686;2022-08-25T00:11:09;101220.75;;;24.74;55.98
13068;BME280;6600;51.362;6.686;2022-08-25T00:13:38;101228.03;;;24.64;55.76
13068;BME280;6600;51.362;6.686;2022-08-25T00:16:03;101220.69;;;24.60;56.17
13068;BME280;6600;51.362;6.686;2022-08-25T00:18:29;101233.13;;;24.52;56.73
13068;BME280;6600;51.362;6.686;2022-08-25T00:20:55;101231.06;;;24.44;56.75
13068;BME280;6600;51.362;6.686;2022-08-25T00:23:20;101236.09;;;24.37;57.13
13068;BME280;6600;51.362;6.686;2022-08-25T00:25:46;101238.88;;;24.32;57.14
13068;BME280;6600;51.362;6.686;2022-08-25T00:28:12;101237.84;;;24.28;57.94
13068;BME280;6600;51.362;6.686;2022-08-25T00:30:38;101237.94;;;24.23;58.50
13068;BME280;6600;51.362;6.686;2022-08-25T00:33:04;101240.19;;;24.16;58.50
13068;BME280;6600;51.362;6.686;2022-08-25T00:35:29;101235.34;;;24.08;58.92
13068;BME280;6600;51.362;6.686;2022-08-25T00:37:55;101242.81;;;24.02;58.96
13068;BME280;6600;51.362;6.686;2022-08-25T00:40:22;101247.00;;;23.95;59.55
13068;BME280;6600;51.362;6.686;2022-08-25T00:42:48;101244.88;;;23.87;60.00
13068;BME280;6600;51.362;6.686;2022-08-25T00:45:13;101252.13;;;23.78;60.00
13068;BME280;6600;51.362;6.686;2022-08-25T00:47:39;101249.19;;;23.69;60.71
13068;BME280;6600;51.362;6.686;2022-08-25T00:50:06;101244.66;;;23.59;61.02
13068;BME280;6600;51.362;6.686;2022-08-25T00:52:36;101238.19;;;23.50;61.70
13068;BME280;6600;51.362;6.686;2022-08-25T00:55:15;101234.97;;;23.43;62.07
13068;BME280;6600;51.362;6.686;2022-08-25T00:57:47;101245.38;;;23.36;62.25
13068;BME280;6600;51.362;6.686;2022-08-25T01:00:23;101243.50;;;23.32;62.85
13068;BME280;6600;51.362;6.686;2022-08-25T01:02:49;101249.56;;;23.29;62.84
13068;BME280;6600;51.362;6.686;2022-08-25T01:05:15;101242.19;;;23.24;63.01
13068;BME280;6600;51.362;6.686;2022-08-25T01:07:42;101248.00;;;23.17;62.95
13068;BME280;6600;51.362;6.686;2022-08-25T01:10:08;101236.81;;;23.14;63.34
13068;BME280;6600;51.362;6.686;2022-08-25T01:12:35;101248.34;;;23.11;63.62
13068;BME280;6600;51.362;6.686;2022-08-25T01:15:03;101242.63;;;23.07;64.21
13068;BME280;6600;51.362;6.686;2022-08-25T01:17:55;101243.50;;;23.03;64.70
13068;BME280;6600;51.362;6.686;2022-08-25T01:20:22;101250.63;;;22.99;64.51
13068;BME280;6600;51.362;6.686;2022-08-25T01:22:49;101243.28;;;22.94;64.62
13068;BME280;6600;51.362;6.686;2022-08-25T01:25:38;101249.88;;;22.88;64.29
13068;BME280;6600;51.362;6.686;2022-08-25T01:28:07;101254.56;;;22.83;64.53
13068;BME280;6600;51.362;6.686;2022-08-25T01:30:33;101244.50;;;22.78;64.95
13068;BME280;6600;51.362;6.686;2022-08-25T01:33:03;101252.44;;;22.75;64.80
13068;BME280;6600;51.362;6.686;2022-08-25T01:35:28;101252.47;;;22.70;65.22
13068;BME280;6600;51.362;6.686;2022-08-25T01:37:54;101248.09;;;22.63;65.45
13068;BME280;6600;51.362;6.686;2022-08-25T01:40:19;101247.03;;;22.59;65.49
13068;BME280;6600;51.362;6.686;2022-08-25T01:43:02;101250.34;;;22.56;65.86
13068;BME280;6600;51.362;6.686;2022-08-25T01:45:34;101241.06;;;22.52;66.38
13068;BME280;6600;51.362;6.686;2022-08-25T01:48:00;101245.44;;;22.48;66.79
13068;BME280;6600;51.362;6.686;2022-08-25T01:50:25;101240.31;;;22.42;67.29
13068;BME280;6600;51.362;6.686;2022-08-25T01:55:29;101246.63;;;22.32;67.99
13068;BME280;6600;51.362;6.686;2022-08-25T01:58:15;101247.75;;;22.26;68.00
13068;BME280;6600;51.362;6.686;2022-08-25T02:00:44;101235.78;;;22.22;67.97
13068;BME280;6600;51.362;6.686;2022-08-25T02:03:10;101237.41;;;22.18;68.24
13068;BME280;6600;51.362;6.686;2022-08-25T02:05:35;101239.88;;;22.14;68.36
13068;BME280;6600;51.362;6.686;2022-08-25T02:08:01;101241.28;;;22.12;68.07
13068;BME280;6600;51.362;6.686;2022-08-25T02:10:26;101241.84;;;22.09;68.25
13068;BME280;6600;51.362;6.686;2022-08-25T02:12:51;101241.28;;;22.07;68.18
13068;BME280;6600;51.362;6.686;2022-08-25T02:15:17;101236.38;;;22.04;67.83
13068;BME280;6600;51.362;6.686;2022-08-25T02:17:42;101239.13;;;22.04;67.64
13068;BME280;6600;51.362;6.686;2022-08-25T02:20:08;101233.41;;;22.00;67.98
13068;BME280;6600;51.362;6.686;2022-08-25T02:22:33;101238.59;;;21.97;68.11
13068;BME280;6600;51.362;6.686;2022-08-25T02:24:59;101244.59;;;21.94;68.83
13068;BME280;6600;51.362;6.686;2022-08-25T02:27:24;101248.97;;;21.90;69.51
13068;BME280;6600;51.362;6.686;2022-08-25T02:29:50;101242.97;;;21.83;69.34
13068;BME280;6600;51.362;6.686;2022-08-25T02:32:16;101245.44;;;21.79;69.23
13068;BME280;6600;51.362;6.686;2022-08-25T02:34:41;101250.09;;;21.74;70.06
13068;BME280;6600;51.362;6.686;2022-08-25T02:37:06;101245.75;;;21.67;70.14
13068;BME280;6600;51.362;6.686;2022-08-25T02:39:32;101235.13;;;21.61;70.40
13068;BME280;6600;51.362;6.686;2022-08-25T02:41:58;101239.22;;;21.58;70.71
13068;BME280;6600;51.362;6.686;2022-08-25T02:44:24;101233.78;;;21.53;71.57
13068;BME280;6600;51.362;6.686;2022-08-25T02:46:49;101238.16;;;21.49;71.73
13068;BME280;6600;51.362;6.686;2022-08-25T02:49:14;101239.25;;;21.43;72.04
13068;BME280;6600;51.362;6.686;2022-08-25T02:51:40;101235.97;;;21.41;72.06
13068;BME280;6600;51.362;6.686;2022-08-25T02:54:05;101230.25;;;21.38;72.37
13068;BME280;6600;51.362;6.686;2022-08-25T02:56:31;101237.88;;;21.36;72.03
13068;BME280;6600;51.362;6.686;2022-08-25T02:58:57;101236.53;;;21.33;72.64
13068;BME280;6600;51.362;6.686;2022-08-25T03:01:23;101235.97;;;21.31;73.53
13068;BME280;6600;51.362;6.686;2022-08-25T03:03:49;101227.25;;;21.29;72.83
13068;BME280;6600;51.362;6.686;2022-08-25T03:06:18;101225.63;;;21.28;73.66
13068;BME280;6600;51.362;6.686;2022-08-25T03:08:47;101220.16;;;21.28;73.56
13068;BME280;6600;51.362;6.686;2022-08-25T03:11:12;101213.09;;;21.27;73.26
13068;BME280;6600;51.362;6.686;2022-08-25T03:13:38;101216.91;;;21.26;73.47
13068;BME280;6600;51.362;6.686;2022-08-25T03:16:05;101221.81;;;21.24;73.13
13068;BME280;6600;51.362;6.686;2022-08-25T03:18:31;101201.66;;;21.20;73.39
13068;BME280;6600;51.362;6.686;2022-08-25T03:20:57;101207.63;;;21.17;73.60
13068;BME280;6600;51.362;6.686;2022-08-25T03:23:22;101206.56;;;21.13;72.84
13068;BME280;6600;51.362;6.686;2022-08-25T03:25:48;101204.94;;;21.12;73.22
13068;BME280;6600;51.362;6.686;2022-08-25T03:28:32;101198.66;;;21.11;73.08
13068;BME280;6600;51.362;6.686;2022-08-25T03:31:01;101192.91;;;21.08;73.31
13068;BME280;6600;51.362;6.686;2022-08-25T03:33:28;101200.00;;;21.09;73.47
13068;BME280;6600;51.362;6.686;2022-08-25T03:39:50;101202.22;;;21.12;73.00
13068;BME280;6600;51.362;6.686;2022-08-25T03:42:15;101201.66;;;21.10;73.44
13068;BME280;6600;51.362;6.686;2022-08-25T03:44:40;101200.00;;;21.09;73.38
13068;BME280;6600;51.362;6.686;2022-08-25T03:53:30;101200.56;;;21.11;73.00
13068;BME280;6600;51.362;6.686;2022-08-25T03:55:55;101195.63;;;21.08;73.23
13068;BME280;6600;51.362;6.686;2022-08-25T03:58:21;101195.63;;;21.08;73.63
13068;BME280;6600;51.362;6.686;2022-08-25T04:00:47;101196.72;;;21.07;73.48
13068;BME280;6600;51.362;6.686;2022-08-25T04:03:12;101194.81;;;21.02;73.66
13068;BME280;6600;51.362;6.686;2022-08-25T04:05:37;101187.47;;;20.98;74.00
13068;BME280;6600;51.362;6.686;2022-08-25T04:08:04;101183.66;;;20.99;73.76
13068;BME280;6600;51.362;6.686;2022-08-25T04:10:31;101179.03;;;20.99;73.63
13068;BME280;6600;51.362;6.686;2022-08-25T04:12:56;101176.84;;;21.01;72.94
13068;BME280;6600;51.362;6.686;2022-08-25T04:15:22;101174.38;;;21.05;72.21
13068;BME280;6600;51.362;6.686;2022-08-25T04:17:48;101174.94;;;21.17;71.33
13068;BME280;6600;51.362;6.686;2022-08-25T04:20:14;101168.13;;;21.20;71.36
13068;BME280;6600;51.362;6.686;2022-08-25T04:22:39;101173.31;;;21.26;71.14
13068;BME280;6600;51.362;6.686;2022-08-25T04:25:06;101174.94;;;21.32;71.01
13068;BME280;6600;51.362;6.686;2022-08-25T04:27:32;101179.28;;;21.33;71.05
13068;BME280;6600;51.362;6.686;2022-08-25T04:29:57;101174.66;;;21.34;71.08
13068;BME280;6600;51.362;6.686;2022-08-25T04:32:23;101173.84;;;21.33;71.26
13068;BME280;6600;51.362;6.686;2022-08-25T04:34:48;101173.84;;;21.33;71.22
13068;BME280;6600;51.362;6.686;2022-08-25T04:37:14;101178.75;;;21.36;71.46
13068;BME280;6600;51.362;6.686;2022-08-25T04:39:39;101189.38;;;21.33;71.43
13068;BME280;6600;51.362;6.686;2022-08-25T04:42:05;101180.38;;;21.32;71.28
13068;BME280;6600;51.362;6.686;2022-08-25T04:44:30;101189.63;;;21.31;71.70
13068;BME280;6600;51.362;6.686;2022-08-25T04:46:56;101185.28;;;21.30;71.89
13068;BME280;6600;51.362;6.686;2022-08-25T04:49:22;101183.66;;;21.29;72.17
13068;BME280;6600;51.362;6.686;2022-08-25T04:51:48;101176.56;;;21.28;72.56
13068;BME280;6600;51.362;6.686;2022-08-25T04:54:15;101178.75;;;21.26;72.85
13068;BME280;6600;51.362;6.686;2022-08-25T04:56:41;101175.47;;;21.24;73.09
13068;BME280;6600;51.362;6.686;2022-08-25T04:59:10;101178.22;;;21.19;74.35
13068;BME280;6600;51.362;6.686;2022-08-25T05:01:37;101174.94;;;21.22;74.58
13068;BME280;6600;51.362;6.686;2022-08-25T05:04:05;101180.66;;;21.26;74.41
13068;BME280;6600;51.362;6.686;2022-08-25T05:06:31;101175.47;;;21.24;74.44
13068;BME280;6600;51.362;6.686;2022-08-25T05:08:57;101181.47;;;21.21;74.89
13068;BME280;6600;51.362;6.686;2022-08-25T05:11:24;101175.47;;;21.24;74.95
13068;BME280;6600;51.362;6.686;2022-08-25T05:13:51;101173.53;;;21.35;74.43
13068;BME280;6600;51.362;6.686;2022-08-25T05:16:18;101176.50;;;21.48;73.83
13068;BME280;6600;51.362;6.686;2022-08-25T05:18:44;101175.41;;;21.59;73.74
13068;BME280;6600;51.362;6.686;2022-08-25T05:21:12;101175.94;;;21.66;74.44
13068;BME280;6600;51.362;6.686;2022-08-25T05:23:39;101186.84;;;21.72;74.96
13068;BME280;6600;51.362;6.686;2022-08-25T05:26:12;101174.81;;;21.78;75.63
13068;BME280;6600;51.362;6.686;2022-08-25T05:28:38;101177.50;;;21.83;76.39
13068;BME280;6600;51.362;6.686;2022-08-25T05:31:09;101170.41;;;21.92;76.40
13068;BME280;6600;51.362;6.686;2022-08-25T05:33:35;101169.81;;;22.05;76.11
13068;BME280;6600;51.362;6.686;2022-08-25T05:36:01;101162.59;;;22.24;74.74
13068;BME280;6600;51.362;6.686;2022-08-25T05:38:26;101160.84;;;22.43;75.39
13068;BME280;6600;51.362;6.686;2022-08-25T05:40:56;101162.34;;;22.64;75.08
13068;BME280;6600;51.362;6.686;2022-08-25T05:43:22;101160.56;;;22.84;74.71
13068;BME280;6600;51.362;6.686;2022-08-25T05:45:48;101158.78;;;23.03;72.37
13068;BME280;6600;51.362;6.686;2022-08-25T05:48:14;101155.84;;;23.23;72.06
13068;BME280;6600;51.362;6.686;2022-08-25T05:50:39;101158.38;;;23.43;71.24
13068;BME280;6600;51.362;6.686;2022-08-25T05:53:05;101153.72;;;23.68;68.84
13068;BME280;6600;51.362;6.686;2022-08-25T05:55:30;101156.50;;;23.86;68.94
13068;BME280;6600;51.362;6.686;2022-08-25T05:57:56;101155.56;;;23.96;69.99
13068;BME280;6600;51.362;6.686;2022-08-25T06:00:21;101162.28;;;24.03;67.73
13068;BME280;6600;51.362;6.686;2022-08-25T06:02:47;101162.41;;;24.17;68.39
13068;BME280;6600;51.362;6.686;2022-08-25T06:05:20;101160.50;;;24.36;66.10
13068;BME280;6600;51.362;6.686;2022-08-25T06:07:47;101161.97;;;24.47;66.66
13068;BME280;6600;51.362;6.686;2022-08-25T06:10:13;101155.91;;;24.50;65.70
13068;BME280;6600;51.362;6.686;2022-08-25T06:12:41;101156.34;;;24.57;65.98
13068;BME280;6600;51.362;6.686;2022-08-25T06:15:12;101154.16;;;24.73;65.10
13068;BME280;6600;51.362;6.686;2022-08-25T06:17:38;101162.59;;;24.77;65.13
13068;BME280;6600;51.362;6.686;2022-08-25T06:20:09;101171.34;;;24.79;64.27
13068;BME280;6600;51.362;6.686;2022-08-25T06:22:35;101164.47;;;24.81;63.78
13068;BME280;6600;51.362;6.686;2022-08-25T06:25:05;101166.84;;;24.88;65.72
13068;BME280;6600;51.362;6.686;2022-08-25T06:27:31;101160.16;;;24.94;67.30
13068;BME280;6600;51.362;6.686;2022-08-25T06:29:56;101169.72;;;25.10;63.74
13068;BME280;6600;51.362;6.686;2022-08-25T06:32:22;101163.47;;;25.09;63.33
13068;BME280;6600;51.362;6.686;2022-08-25T06:34:47;101173.81;;;25.12;64.07
13068;BME280;6600;51.362;6.686;2022-08-25T06:37:13;101176.88;;;25.25;63.79
13068;BME280;6600;51.362;6.686;2022-08-25T06:39:38;101179.22;;;25.31;64.27
13068;BME280;6600;51.362;6.686;2022-08-25T06:42:04;101176.28;;;25.41;64.57
13068;BME280;6600;51.362;6.686;2022-08-25T06:44:29;101183.94;;;25.44;64.43
13068;BME280;6600;51.362;6.686;2022-08-25T06:46:55;101184.88;;;25.53;63.89
13068;BME280;6600;51.362;6.686;2022-08-25T06:49:20;101185.28;;;25.60;63.40
13068;BME280;6600;51.362;6.686;2022-08-25T06:51:45;101187.72;;;25.76;62.85
13068;BME280;6600;51.362;6.686;2022-08-25T06:54:11;101183.66;;;25.87;61.78
13068;BME280;6600;51.362;6.686;2022-08-25T06:56:39;101184.25;;;25.97;63.23
13068;BME280;6600;51.362;6.686;2022-08-25T06:59:06;101186.88;;;26.16;64.20
13068;BME280;6600;51.362;6.686;2022-08-25T07:01:33;101191.38;;;26.12;61.13
13068;BME280;6600;51.362;6.686;2022-08-25T07:04:01;101189.53;;;26.21;62.92
13068;BME280;6600;51.362;6.686;2022-08-25T07:06:29;101183.00;;;26.31;62.19
13068;BME280;6600;51.362;6.686;2022-08-25T07:08:55;101190.06;;;26.23;61.10
13068;BME280;6600;51.362;6.686;2022-08-25T07:11:21;101190.56;;;26.25;61.69
13068;BME280;6600;51.362;6.686;2022-08-25T07:13:48;101191.25;;;26.31;62.01
13068;BME280;6600;51.362;6.686;2022-08-25T07:16:14;101184.19;;;26.38;61.50
13068;BME280;6600;51.362;6.686;2022-08-25T07:18:40;101185.84;;;26.39;61.79
13068;BME280;6600;51.362;6.686;2022-08-25T07:21:06;101184.41;;;26.42;62.14
13068;BME280;6600;51.362;6.686;2022-08-25T07:23:32;101179.34;;;26.35;61.17
13068;BME280;6600;51.362;6.686;2022-08-25T07:26:07;101177.97;;;26.46;61.72
13068;BME280;6600;51.362;6.686;2022-08-25T07:28:34;101180.06;;;26.63;61.71
13068;BME280;6600;51.362;6.686;2022-08-25T07:31:00;101182.88;;;26.72;60.78
13068;BME280;6600;51.362;6.686;2022-08-25T07:33:26;101181.81;;;26.81;60.69
13068;BME280;6600;51.362;6.686;2022-08-25T07:35:51;101179.78;;;26.87;60.94
13068;BME280;6600;51.362;6.686;2022-08-25T07:38:16;101177.22;;;26.90;59.76
13068;BME280;6600;51.362;6.686;2022-08-25T07:40:42;101174.28;;;26.87;60.51
13068;BME280;6600;51.362;6.686;2022-08-25T07:43:07;101164.91;;;26.88;60.99
13068;BME280;6600;51.362;6.686;2022-08-25T07:45:34;101161.25;;;26.79;60.22
13068;BME280;6600;51.362;6.686;2022-08-25T07:48:09;101163.91;;;26.84;61.30
13068;BME280;6600;51.362;6.686;2022-08-25T07:50:37;101161.63;;;26.86;61.10
13068;BME280;6600;51.362;6.686;2022-08-25T07:53:03;101166.53;;;26.89;60.42
13068;BME280;6600;51.362;6.686;2022-08-25T07:55:30;101171.41;;;26.92;60.08
13068;BME280;6600;51.362;6.686;2022-08-25T07:57:56;101174.34;;;26.95;60.68
13068;BME280;6600;51.362;6.686;2022-08-25T08:00:24;101169.78;;;26.91;60.34
13068;BME280;6600;51.362;6.686;2022-08-25T08:02:52;101177.28;;;26.99;60.72
13068;BME280;6600;51.362;6.686;2022-08-25T08:05:17;101173.31;;;27.13;59.25
13068;BME280;6600;51.362;6.686;2022-08-25T08:07:43;101173.47;;;27.17;59.47
13068;BME280;6600;51.362;6.686;2022-08-25T08:10:11;101167.88;;;27.22;58.72
13068;BME280;6600;51.362;6.686;2022-08-25T08:12:37;101163.19;;;27.31;57.78
13068;BME280;6600;51.362;6.686;2022-08-25T08:15:04;101161.13;;;27.37;56.57
13068;BME280;6600;51.362;6.686;2022-08-25T08:17:29;101151.75;;;27.38;56.38
13068;BME280;6600;51.362;6.686;2022-08-25T08:19:57;101157.16;;;27.51;55.96
13068;BME280;6600;51.362;6.686;2022-08-25T08:22:23;101156.91;;;27.62;55.87
13068;BME280;6600;51.362;6.686;2022-08-25T08:24:48;101152.22;;;27.79;55.29
13068;BME280;6600;51.362;6.686;2022-08-25T08:27:13;101143.84;;;27.84;55.48
13068;BME280;6600;51.362;6.686;2022-08-25T08:29:40;101142.06;;;27.97;55.11
13068;BME280;6600;51.362;6.686;2022-08-25T08:32:09;101141.47;;;28.08;53.07
13068;BME280;6600;51.362;6.686;2022-08-25T08:34:35;101139.22;;;28.19;53.82
13068;BME280;6600;51.362;6.686;2022-08-25T08:37:01;101132.28;;;28.30;52.71
13068;BME280;6600;51.362;6.686;2022-08-25T08:39:28;101133.06;;;28.39;52.43
13068;BME280;6600;51.362;6.686;2022-08-25T08:42:12;101126.25;;;28.45;52.09
13068;BME280;6600;51.362;6.686;2022-08-25T08:47:42;101129.84;;;28.72;52.29
13068;BME280;6600;51.362;6.686;2022-08-25T08:52:47;101123.31;;;28.85;52.36
13068;BME280;6600;51.362;6.686;2022-08-25T08:57:52;101110.25;;;29.11;51.21
13068;BME280;6600;51.362;6.686;2022-08-25T09:00:20;101113.19;;;29.06;51.44
13068;BME280;6600;51.362;6.686;2022-08-25T09:03:04;101111.16;;;29.32;50.21
13068;BME280;6600;51.362;6.686;2022-08-25T09:05:37;101099.31;;;29.32;50.71
13068;BME280;6600;51.362;6.686;2022-08-25T09:08:06;101099.91;;;29.46;50.02
13068;BME280;6600;51.362;6.686;2022-08-25T09:11:01;101096.72;;;29.65;49.70
13068;BME280;6600;51.362;6.686;2022-08-25T09:22:17;101096.38;;;29.95;47.98
13068;BME280;6600;51.362;6.686;2022-08-25T09:30:26;101086.00;;;30.13;48.49
13068;BME280;6600;51.362;6.686;2022-08-25T09:32:54;101094.59;;;30.32;48.63
13068;BME280;6600;51.362;6.686;2022-08-25T09:35:29;101095.06;;;30.34;48.01
13068;BME280;6600;51.362;6.686;2022-08-25T09:37:56;101085.16;;;30.54;48.02
13068;BME280;6600;51.362;6.686;2022-08-25T09:40:23;101081.63;;;30.66;48.06
13068;BME280;6600;51.362;6.686;2022-08-25T09:42:55;101080.50;;;30.79;47.91
13068;BME280;6600;51.362;6.686;2022-08-25T09:45:43;101079.59;;;30.75;47.55
13068;BME280;6600;51.362;6.686;2022-08-25T09:48:41;101075.00;;;30.91;47.40
13068;BME280;6600;51.362;6.686;2022-08-25T09:56:22;101065.38;;;31.09;46.25
13068;BME280;6600;51.362;6.686;2022-08-25T09:58:48;101069.63;;;31.19;46.13
13068;BME280;6600;51.362;6.686;2022-08-25T10:01:21;101064.91;;;31.31;46.35
13068;BME280;6600;51.362;6.686;2022-08-25T10:03:54;101064.66;;;31.24;45.91
13068;BME280;6600;51.362;6.686;2022-08-25T10:06:20;101058.78;;;31.50;44.78
13068;BME280;6600;51.362;6.686;2022-08-25T10:11:14;101062.84;;;31.65;45.55
13068;BME280;6600;51.362;6.686;2022-08-25T10:14:01;101051.28;;;31.75;45.16
13068;BME280;6600;51.362;6.686;2022-08-25T10:16:29;101048.50;;;31.75;45.75
13068;BME280;6600;51.362;6.686;2022-08-25T10:19:08;101058.72;;;31.86;44.73
13068;BME280;6600;51.362;6.686;2022-08-25T10:21:36;101052.09;;;32.03;44.17
13068;BME280;6600;51.362;6.686;2022-08-25T10:24:03;101053.16;;;32.11;44.15
13068;BME280;6600;51.362;6.686;2022-08-25T10:32:15;101037.72;;;32.25;44.18
13068;BME280;6600;51.362;6.686;2022-08-25T10:34:49;101039.34;;;32.26;43.20
13068;BME280;6600;51.362;6.686;2022-08-25T10:42:33;101027.34;;;32.22;42.87
13068;BME280;6600;51.362;6.686;2022-08-25T10:45:15;101026.63;;;32.25;42.05
13068;BME280;6600;51.362;6.686;2022-08-25T10:53:39;101007.75;;;32.59;41.44
13068;BME280;6600;51.362;6.686;2022-08-25T10:56:20;101007.22;;;32.69;41.51
13068;BME280;6600;51.362;6.686;2022-08-25T10:58:58;101003.59;;;32.52;41.20
13068;BME280;6600;51.362;6.686;2022-08-25T11:04:29;101003.47;;;32.77;40.87
13068;BME280;6600;51.362;6.686;2022-08-25T11:07:02;100986.91;;;32.80;41.11
13068;BME280;6600;51.362;6.686;2022-08-25T11:09:34;100996.22;;;32.88;40.42
13068;BME280;6600;51.362;6.686;2022-08-25T11:12:08;100992.91;;;32.98;40.98
13068;BME280;6600;51.362;6.686;2022-08-25T11:14:59;100984.50;;;32.79;39.55
13068;BME280;6600;51.362;6.686;2022-08-25T11:20:19;100989.47;;;33.04;39.75
13068;BME280;6600;51.362;6.686;2022-08-25T11:22:50;100991.28;;;32.97;38.96
13068;BME280;6600;51.362;6.686;2022-08-25T11:25:24;100980.91;;;32.94;38.79
13068;BME280;6600;51.362;6.686;2022-08-25T11:27:56;100975.94;;;33.03;38.35
13068;BME280;6600;51.362;6.686;2022-08-25T11:30:23;100978.41;;;33.20;38.30
13068;BME280;6600;51.362;6.686;2022-08-25T11:32:50;100979.72;;;33.11;38.23
13068;BME280;6600;51.362;6.686;2022-08-25T11:35:19;100983.13;;;33.04;38.79
13068;BME280;6600;51.362;6.686;2022-08-25T11:51:54;100967.34;;;33.08;39.62
13068;BME280;6600;51.362;6.686;2022-08-25T11:54:37;100970.59;;;33.10;37.42
13068;BME280;6600;51.362;6.686;2022-08-25T11:57:09;100971.22;;;33.19;37.37
13068;BME280;6600;51.362;6.686;2022-08-25T12:02:33;100958.97;;;33.39;38.61
13068;BME280;6600;51.362;6.686;2022-08-25T12:05:04;100968.31;;;33.31;37.94
13068;BME280;6600;51.362;6.686;2022-08-25T12:10:14;100952.84;;;33.49;38.62
13068;BME280;6600;51.362;6.686;2022-08-25T12:15:25;100937.03;;;33.34;38.33
13068;BME280;6600;51.362;6.686;2022-08-25T12:29:00;100928.56;;;33.46;35.77
13068;BME280;6600;51.362;6.686;2022-08-25T12:37:11;100925.69;;;33.78;36.09
13068;BME280;6600;51.362;6.686;2022-08-25T12:42:35;100919.91;;;33.67;35.18
13068;BME280;6600;51.362;6.686;2022-08-25T12:47:40;100914.03;;;33.53;35.73
13068;BME280;6600;51.362;6.686;2022-08-25T12:52:53;100912.78;;;33.50;35.24
13068;BME280;6600;51.362;6.686;2022-08-25T12:55:21;100906.19;;;33.59;35.13
13068;BME280;6600;51.362;6.686;2022-08-25T12:57:54;100912.19;;;33.61;36.60
13068;BME280;6600;51.362;6.686;2022-08-25T13:00:27;100908.53;;;33.57;35.38
13068;BME280;6600;51.362;6.686;2022-08-25T13:08:53;100900.78;;;33.46;35.65
13068;BME280;6600;51.362;6.686;2022-08-25T13:11:24;100897.13;;;33.42;35.29
13068;BME280;6600;51.362;6.686;2022-08-25T13:14:16;100890.78;;;33.61;35.82
13068;BME280;6600;51.362;6.686;2022-08-25T13:16:55;100894.66;;;33.76;35.62
13068;BME280;6600;51.362;6.686;2022-08-25T13:19:21;100894.94;;;33.90;35.87
13068;BME280;6600;51.362;6.686;2022-08-25T13:21:47;100896.97;;;33.93;35.98
13068;BME280;6600;51.362;6.686;2022-08-25T13:24:28;100892.00;;;34.02;35.60
13068;BME280;6600;51.362;6.686;2022-08-25T13:26:56;100888.19;;;33.91;34.08
13068;BME280;6600;51.362;6.686;2022-08-25T13:29:35;100879.56;;;33.96;34.64
13068;BME280;6600;51.362;6.686;2022-08-25T13:32:12;100885.56;;;33.98;34.42
13068;BME280;6600;51.362;6.686;2022-08-25T13:34:39;100866.38;;;33.93;34.29
13068;BME280;6600;51.362;6.686;2022-08-25T13:37:10;100872.69;;;33.90;34.54
13068;BME280;6600;51.362;6.686;2022-08-25T13:42:31;100862.91;;;34.19;34.87
13068;BME280;6600;51.362;6.686;2022-08-25T13:44:56;100861.94;;;34.11;34.57
13068;BME280;6600;51.362;6.686;2022-08-25T13:47:34;100857.88;;;34.05;34.53
13068;BME280;6600;51.362;6.686;2022-08-25T13:50:27;100859.66;;;34.13;34.92
13068;BME280;6600;51.362;6.686;2022-08-25T13:52:56;100864.00;;;34.14;34.53
13068;BME280;6600;51.362;6.686;2022-08-25T13:55:25;100854.53;;;33.96;33.96
13068;BME280;6600;51.362;6.686;2022-08-25T13:57:53;100858.03;;;34.12;34.02
13068;BME280;6600;51.362;6.686;2022-08-25T14:00:35;100863.59;;;33.93;35.77
13068;BME280;6600;51.362;6.686;2022-08-25T14:03:04;100860.94;;;34.00;34.27
13068;BME280;6600;51.362;6.686;2022-08-25T14:05:37;100854.53;;;33.96;34.31
13068;BME280;6600;51.362;6.686;2022-08-25T14:08:05;100852.19;;;33.75;33.94
13068;BME280;6600;51.362;6.686;2022-08-25T14:10:41;100851.72;;;33.73;33.91
13068;BME280;6600;51.362;6.686;2022-08-25T14:13:14;100847.25;;;33.88;35.13
13068;BME280;6600;51.362;6.686;2022-08-25T14:15:43;100849.47;;;33.79;35.12
13068;BME280;6600;51.362;6.686;2022-08-25T14:18:27;100839.50;;;33.59;34.63
13068;BME280;6600;51.362;6.686;2022-08-25T14:20:55;100840.06;;;33.87;34.97
13068;BME280;6600;51.362;6.686;2022-08-25T14:23:24;100845.94;;;34.05;34.09
13068;BME280;6600;51.362;6.686;2022-08-25T14:25:52;100837.13;;;33.99;34.90
13068;BME280;6600;51.362;6.686;2022-08-25T14:28:22;100834.69;;;33.75;34.89
13068;BME280;6600;51.362;6.686;2022-08-25T14:30:52;100828.81;;;33.80;34.83
13068;BME280;6600;51.362;6.686;2022-08-25T14:33:20;100824.06;;;33.80;33.69
13068;BME280;6600;51.362;6.686;2022-08-25T14:35:50;100826.34;;;33.75;34.60
13068;BME280;6600;51.362;6.686;2022-08-25T14:38:18;100822.31;;;33.72;33.97
13068;BME280;6600;51.362;6.686;2022-08-25T14:40:44;100815.38;;;33.82;35.77
13068;BME280;6600;51.362;6.686;2022-08-25T14:43:10;100818.09;;;33.78;35.39
13068;BME280;6600;51.362;6.686;2022-08-25T14:45:37;100818.75;;;33.94;34.21
13068;BME280;6600;51.362;6.686;2022-08-25T14:48:07;100811.88;;;34.11;35.34
13068;BME280;6600;51.362;6.686;2022-08-25T14:50:33;100811.84;;;34.08;35.40
13068;BME280;6600;51.362;6.686;2022-08-25T14:53:00;100810.78;;;33.93;34.13
13068;BME280;6600;51.362;6.686;2022-08-25T14:55:25;100812.03;;;34.18;35.71
13068;BME280;6600;51.362;6.686;2022-08-25T14:57:51;100815.28;;;34.24;35.15
13068;BME280;6600;51.362;6.686;2022-08-25T15:00:16;100812.03;;;34.18;35.11
13068;BME280;6600;51.362;6.686;2022-08-25T15:02:42;100802.09;;;34.17;35.56
13068;BME280;6600;51.362;6.686;2022-08-25T15:05:19;100808.84;;;34.16;34.36
13068;BME280;6600;51.362;6.686;2022-08-25T15:07:45;100805.63;;;34.14;33.38
13068;BME280;6600;51.362;6.686;2022-08-25T15:10:28;100792.69;;;34.03;33.38